createdAt,value
2022-08-07T00:00:39.860Z,49.22
2022-08-07T00:03:09.164Z,49.55
2022-08-07T00:05:37.418Z,49.31
2022-08-07T00:08:05.622Z,49.29
2022-08-07T00:10:36.480Z,49.68
2022-08-07T00:13:23.809Z,49.37
2022-08-07T00:15:53.819Z,49.12
2022-08-07T00:18:25.093Z,49.36
2022-08-07T00:21:03.522Z,49.17
2022-08-07T00:23:37.454Z,48.97
2022-08-07T00:26:13.024Z,49.19
2022-08-07T00:28:56.774Z,48.74
2022-08-07T00:31:26.125Z,48.92
2022-08-07T00:34:09.008Z,48.94
2022-08-07T00:36:38.516Z,49.26
2022-08-07T00:39:06.190Z,49.03
2022-08-07T00:41:37.412Z,48.84
2022-08-07T00:44:13.023Z,48.70
2022-08-07T00:46:42.631Z,48.40
2022-08-07T00:49:10.936Z,48.27
2022-08-07T00:51:58.906Z,48.21
2022-08-07T00:54:26.316Z,47.98
2022-08-07T00:56:53.695Z,47.81
2022-08-07T00:59:35.068Z,47.62
2022-08-07T01:02:13.935Z,47.88
2022-08-07T01:04:58.281Z,47.66
2022-08-07T01:07:28.111Z,47.82
2022-08-07T01:10:04.218Z,47.78
2022-08-07T01:12:33.084Z,48.07
2022-08-07T01:15:03.941Z,47.96
2022-08-07T01:17:32.724Z,48.03
2022-08-07T01:20:16.845Z,48.01
2022-08-07T01:23:00.567Z,48.47
2022-08-07T01:25:54.514Z,48.51
2022-08-07T01:28:22.722Z,48.17
2022-08-07T01:30:52.742Z,48.17
2022-08-07T01:33:22.481Z,48.36
2022-08-07T01:35:54.474Z,48.63
2022-08-07T01:38:34.138Z,48.30
2022-08-07T01:41:05.499Z,47.95
2022-08-07T01:43:38.537Z,47.94
2022-08-07T01:46:08.262Z,48.02
2022-08-07T01:48:42.179Z,47.91
2022-08-07T01:52:02.074Z,47.91
2022-08-07T01:54:13.025Z,47.98
2022-08-07T01:57:04.533Z,47.92
2022-08-07T01:59:54.996Z,47.69
2022-08-07T02:02:32.614Z,48.21
2022-08-07T02:05:48.207Z,48.42
2022-08-07T02:08:16.929Z,48.02
2022-08-07T02:10:48.663Z,48.15
2022-08-07T02:13:47.101Z,48.36
2022-08-07T02:16:17.880Z,48.04
2022-08-07T02:18:51.207Z,48.27
2022-08-07T02:21:19.399Z,48.00
2022-08-07T02:23:47.838Z,48.33
2022-08-07T02:26:32.366Z,48.46
2022-08-07T02:29:05.292Z,48.52
2022-08-07T02:31:41.241Z,48.60
2022-08-07T02:34:11.186Z,48.51
2022-08-07T02:36:45.237Z,48.47
2022-08-07T02:39:16.206Z,48.54
2022-08-07T02:42:10.362Z,48.70
2022-08-07T02:44:45.809Z,48.56
2022-08-07T02:47:35.112Z,48.83
2022-08-07T02:50:06.847Z,48.87
2022-08-07T02:52:44.073Z,48.90
2022-08-07T02:55:27.948Z,48.97
2022-08-07T02:58:12.099Z,48.85
2022-08-07T03:00:41.896Z,48.80
2022-08-07T03:03:22.604Z,48.68
2022-08-07T03:05:52.140Z,48.62
2022-08-07T03:08:29.107Z,48.67
2022-08-07T03:10:58.520Z,49.15
2022-08-07T03:13:26.633Z,49.04
2022-08-07T03:15:56.345Z,48.74
2022-08-07T03:18:34.697Z,48.95
2022-08-07T03:21:08.691Z,48.85
2022-08-07T03:24:18.462Z,49.01
2022-08-07T03:26:33.072Z,48.96
2022-08-07T03:29:03.472Z,48.80
2022-08-07T03:31:42.460Z,48.79
2022-08-07T03:34:18.453Z,49.14
2022-08-07T03:36:51.815Z,48.82
2022-08-07T03:39:45.919Z,48.86
2022-08-07T03:42:09.311Z,48.54
2022-08-07T03:44:37.940Z,48.57
2022-08-07T03:47:13.378Z,48.70
2022-08-07T03:49:47.653Z,48.96
2022-08-07T03:52:22.638Z,48.83
2022-08-07T03:55:06.803Z,49.16
2022-08-07T03:58:08.689Z,48.94
2022-08-07T04:00:29.262Z,48.75
2022-08-07T04:02:59.630Z,48.86
2022-08-07T04:05:40.754Z,48.70
2022-08-07T04:08:12.538Z,48.93
2022-08-07T04:10:54.501Z,48.83
2022-08-07T04:14:10.406Z,49.17
2022-08-07T04:16:30.994Z,49.61
2022-08-07T04:19:03.845Z,49.34
2022-08-07T04:21:40.179Z,49.60
2022-08-07T04:24:33.727Z,49.57
2022-08-07T04:27:04.456Z,49.72
2022-08-07T04:29:40.309Z,49.86
2022-08-07T04:32:33.991Z,49.90
2022-08-07T04:35:11.483Z,50.19
2022-08-07T04:38:00.809Z,50.15
2022-08-07T04:40:31.390Z,50.30
2022-08-07T04:43:02.149Z,50.00
2022-08-07T04:46:01.625Z,50.01
2022-08-07T04:48:51.024Z,49.64
2022-08-07T04:51:27.588Z,49.84
2022-08-07T04:54:33.385Z,49.89
2022-08-07T04:58:07.389Z,49.77
2022-08-07T05:00:12.246Z,49.92
2022-08-07T05:02:59.233Z,49.54
2022-08-07T05:05:52.833Z,49.50
2022-08-07T05:08:59.200Z,49.43
2022-08-07T05:11:26.323Z,49.41
2022-08-07T05:14:55.283Z,49.28
2022-08-07T05:17:11.915Z,49.36
2022-08-07T05:19:49.760Z,49.53
2022-08-07T05:22:26.786Z,49.28
2022-08-07T05:24:59.697Z,48.92
2022-08-07T05:28:03.503Z,49.01
2022-08-07T05:30:21.167Z,49.10
2022-08-07T05:33:03.264Z,49.05
2022-08-07T05:35:42.234Z,48.66
2022-08-07T05:38:11.079Z,48.50
2022-08-07T05:40:41.871Z,48.43
2022-08-07T05:43:19.408Z,48.14
2022-08-07T05:46:07.097Z,47.81
2022-08-07T05:48:34.815Z,47.93
2022-08-07T05:51:03.364Z,48.17
2022-08-07T05:54:12.780Z,47.93
2022-08-07T05:56:20.077Z,47.97
2022-08-07T05:59:00.061Z,47.67
2022-08-07T06:01:34.832Z,47.62
2022-08-07T06:04:04.995Z,47.81
2022-08-07T06:06:35.127Z,47.87
2022-08-07T06:09:04.663Z,47.86
2022-08-07T06:11:34.470Z,47.46
2022-08-07T06:14:11.921Z,47.07
2022-08-07T06:16:50.226Z,47.67
2022-08-07T06:19:57.666Z,47.20
2022-08-07T06:22:15.644Z,47.26
2022-08-07T06:25:00.900Z,47.64
2022-08-07T06:28:00.434Z,47.52
2022-08-07T06:30:24.017Z,47.46
2022-08-07T06:33:00.840Z,46.90
2022-08-07T06:35:38.949Z,46.83
2022-08-07T06:38:20.095Z,46.14
2022-08-07T06:40:50.516Z,46.23
2022-08-07T06:43:22.228Z,45.92
2022-08-07T06:45:56.332Z,45.41
2022-08-07T06:48:28.631Z,46.41
2022-08-07T06:50:59.418Z,46.83
2022-08-07T06:54:12.198Z,47.52
2022-08-07T06:56:49.791Z,48.44
2022-08-07T07:00:13.979Z,48.71
2022-08-07T07:02:48.777Z,48.61
2022-08-07T07:05:12.780Z,48.59
2022-08-07T07:07:59.472Z,48.60
2022-08-07T07:10:31.162Z,48.68
2022-08-07T07:13:56.103Z,49.15
2022-08-07T07:16:19.610Z,48.53
2022-08-07T07:18:51.511Z,48.15
2022-08-07T07:21:40.267Z,47.94
2022-08-07T07:24:20.579Z,47.78
2022-08-07T07:26:52.807Z,47.91
2022-08-07T07:29:57.269Z,48.06
2022-08-07T07:32:14.919Z,47.69
2022-08-07T07:34:45.751Z,47.65
2022-08-07T07:37:45.520Z,46.65
2022-08-07T07:40:14.637Z,46.59
2022-08-07T07:42:53.749Z,46.57
2022-08-07T07:46:37.965Z,45.09
2022-08-07T07:48:35.154Z,44.91
2022-08-07T07:51:07.932Z,44.94
2022-08-07T07:53:52.199Z,44.40
2022-08-07T07:56:29.938Z,42.69
2022-08-07T07:58:59.972Z,43.27
2022-08-07T08:02:01.707Z,42.45
2022-08-07T08:04:20.196Z,43.30
2022-08-07T08:06:54.343Z,41.38
2022-08-07T08:09:29.180Z,41.94
2022-08-07T08:12:01.883Z,41.73
2022-08-07T08:14:36.665Z,41.98
2022-08-07T08:17:55.497Z,42.00
2022-08-07T08:20:17.550Z,42.20
2022-08-07T08:23:09.440Z,40.05
2022-08-07T08:26:02.192Z,40.30
2022-08-07T08:28:38.268Z,39.61
2022-08-07T08:31:14.728Z,40.06
2022-08-07T08:33:49.604Z,39.31
2022-08-07T08:36:30.800Z,39.39
2022-08-07T08:39:02.190Z,38.19
2022-08-07T08:41:57.218Z,37.55
2022-08-07T08:44:44.848Z,38.13
2022-08-07T08:47:51.786Z,39.28
2022-08-07T08:50:39.099Z,38.56
2022-08-07T08:53:45.978Z,35.47
2022-08-07T08:56:24.206Z,36.42
2022-08-07T08:58:57.189Z,36.87
2022-08-07T09:01:44.116Z,36.32
2022-08-07T09:04:26.139Z,35.20
2022-08-07T09:07:11.850Z,35.83
2022-08-07T09:09:58.080Z,35.76
2022-08-07T09:12:46.772Z,35.08
2022-08-07T09:16:24.812Z,35.54
2022-08-07T09:19:51.202Z,35.11
2022-08-07T09:24:31.902Z,35.25
2022-08-07T09:25:34.288Z,34.91
2022-08-07T09:30:00.473Z,34.96
2022-08-07T09:31:04.068Z,34.99
2022-08-07T09:33:58.232Z,35.49
2022-08-07T09:36:37.309Z,34.62
2022-08-07T09:39:55.249Z,36.45
2022-08-07T09:42:48.020Z,35.26
2022-08-07T09:47:25.245Z,34.33
2022-08-07T09:48:56.167Z,34.30
2022-08-07T09:52:09.928Z,35.32
2022-08-07T09:54:40.317Z,34.84
2022-08-07T09:57:47.174Z,34.79
2022-08-07T10:00:16.167Z,34.50
2022-08-07T10:04:03.081Z,35.87
2022-08-07T10:06:00.168Z,34.04
2022-08-07T10:08:58.368Z,33.93
2022-08-07T10:12:02.326Z,33.83
2022-08-07T10:15:15.386Z,33.49
2022-08-07T10:18:03.109Z,33.51
2022-08-07T10:21:19.559Z,33.79
2022-08-07T10:24:05.193Z,33.30
2022-08-07T10:26:58.926Z,33.02
2022-08-07T10:30:06.500Z,35.19
2022-08-07T10:32:59.731Z,35.17
2022-08-07T10:35:56.008Z,33.96
2022-08-07T10:38:49.061Z,33.20
2022-08-07T10:41:47.209Z,34.46
2022-08-07T10:44:28.508Z,33.44
2022-08-07T10:47:26.942Z,33.34
2022-08-07T10:50:25.876Z,33.06
2022-08-07T10:53:21.668Z,33.03
2022-08-07T10:56:02.233Z,33.86
2022-08-07T10:58:59.729Z,33.65
2022-08-07T11:01:35.515Z,33.11
2022-08-07T11:04:32.222Z,32.34
2022-08-07T11:07:59.150Z,33.38
2022-08-07T11:10:20.157Z,32.65
2022-08-07T11:13:04.279Z,34.19
2022-08-07T11:15:36.146Z,33.54
2022-08-07T11:18:12.707Z,32.25
2022-08-07T11:20:47.280Z,31.50
2022-08-07T11:23:38.856Z,31.12
2022-08-07T11:26:49.830Z,31.35
2022-08-07T11:29:48.300Z,30.93
2022-08-07T11:32:31.087Z,30.51
2022-08-07T11:35:01.371Z,30.49
2022-08-07T11:37:58.019Z,30.79
2022-08-07T11:40:39.644Z,33.39
2022-08-07T11:43:29.801Z,30.42
2022-08-07T11:46:36.600Z,31.53
2022-08-07T11:50:18.775Z,30.56
2022-08-07T11:52:48.011Z,29.68
2022-08-07T11:56:09.719Z,29.94
2022-08-07T11:58:20.798Z,29.81
2022-08-07T12:01:07.532Z,30.38
2022-08-07T12:04:03.302Z,30.10
2022-08-07T12:06:51.618Z,30.11
2022-08-07T12:09:31.810Z,30.32
2022-08-07T12:12:09.012Z,31.04
2022-08-07T12:14:55.701Z,30.19
2022-08-07T12:17:58.638Z,29.90
2022-08-07T12:20:36.674Z,30.77
2022-08-07T12:23:37.293Z,30.30
2022-08-07T12:26:29.968Z,30.70
2022-08-07T12:29:01.700Z,30.24
2022-08-07T12:32:01.986Z,29.99
2022-08-07T12:34:37.104Z,30.00
2022-08-07T12:37:16.225Z,30.03
2022-08-07T12:39:50.490Z,30.63
2022-08-07T12:42:27.222Z,30.51
2022-08-07T12:44:58.378Z,29.63
2022-08-07T12:47:43.926Z,30.88
2022-08-07T12:50:40.203Z,29.42
2022-08-07T12:53:22.579Z,29.37
2022-08-07T12:56:03.354Z,29.08
2022-08-07T12:58:35.341Z,28.83
2022-08-07T13:01:14.044Z,29.08
2022-08-07T13:04:02.965Z,29.59
2022-08-07T13:06:32.197Z,29.60
2022-08-07T13:10:19.312Z,29.77
2022-08-07T13:12:22.633Z,31.54
2022-08-07T13:15:02.129Z,30.37
2022-08-07T13:17:41.131Z,29.95
2022-08-07T13:20:27.793Z,30.53
2022-08-07T13:23:59.757Z,30.57
2022-08-07T13:26:01.915Z,29.75
2022-08-07T13:28:39.761Z,29.17
2022-08-07T13:31:13.176Z,28.98
2022-08-07T13:34:30.162Z,28.94
2022-08-07T13:36:43.700Z,29.06
2022-08-07T13:39:28.562Z,29.25
2022-08-07T13:42:10.395Z,30.00
2022-08-07T13:44:39.719Z,29.62
2022-08-07T13:47:15.162Z,29.94
2022-08-07T13:50:33.289Z,30.55
2022-08-07T13:52:40.842Z,29.78
2022-08-07T13:55:19.713Z,30.12
2022-08-07T13:58:28.103Z,29.90
2022-08-07T14:01:08.948Z,29.92
2022-08-07T14:04:05.088Z,29.91
2022-08-07T14:06:32.238Z,29.27
2022-08-07T14:09:04.785Z,29.57
2022-08-07T14:11:53.183Z,29.24
2022-08-07T14:14:26.871Z,29.12
2022-08-07T14:16:57.589Z,29.63
2022-08-07T14:20:40.725Z,30.02
2022-08-07T14:22:34.772Z,29.59
2022-08-07T14:25:12.453Z,29.76
2022-08-07T14:28:12.208Z,29.36
2022-08-07T14:30:40.612Z,29.40
2022-08-07T14:33:08.672Z,29.16
2022-08-07T14:35:45.488Z,29.10
2022-08-07T14:38:26.313Z,28.96
2022-08-07T14:41:02.114Z,29.02
2022-08-07T14:43:58.159Z,29.17
2022-08-07T14:46:30.516Z,28.83
2022-08-07T14:49:56.114Z,28.98
2022-08-07T14:54:41.693Z,29.55
2022-08-07T14:57:18.728Z,29.83
2022-08-07T15:00:04.749Z,28.96
2022-08-07T15:05:24.774Z,29.00
2022-08-07T15:07:54.216Z,28.86
2022-08-07T15:10:26.164Z,28.94
2022-08-07T15:12:58.413Z,28.62
2022-08-07T15:15:52.635Z,28.78
2022-08-07T15:18:33.905Z,28.40
2022-08-07T15:21:08.194Z,28.46
2022-08-07T15:25:04.038Z,28.29
2022-08-07T15:26:36.751Z,29.31
2022-08-07T15:30:06.637Z,28.28
2022-08-07T15:32:00.686Z,28.44
2022-08-07T15:34:50.379Z,28.93
2022-08-07T15:37:27.555Z,28.55
2022-08-07T15:39:59.012Z,28.52
2022-08-07T15:45:56.214Z,28.60
2022-08-07T15:48:25.780Z,28.23
2022-08-07T15:51:08.276Z,28.77
2022-08-07T15:53:52.861Z,28.77
2022-08-07T15:56:34.947Z,28.75
2022-08-07T15:59:06.152Z,28.66
2022-08-07T16:02:01.826Z,28.56
2022-08-07T16:04:33.637Z,28.82
2022-08-07T16:07:05.170Z,28.89
2022-08-07T16:10:05.990Z,28.58
2022-08-07T16:13:17.797Z,28.98
2022-08-07T16:16:02.273Z,29.14
2022-08-07T16:18:49.628Z,28.88
2022-08-07T16:22:17.887Z,29.15
2022-08-07T16:25:03.511Z,29.65
2022-08-07T16:27:47.351Z,29.00
2022-08-07T16:30:30.768Z,29.38
2022-08-07T16:34:01.404Z,29.05
2022-08-07T16:37:02.757Z,29.52
2022-08-07T16:39:33.542Z,29.63
2022-08-07T16:42:23.963Z,29.31
2022-08-07T16:46:33.755Z,29.32
2022-08-07T16:48:05.185Z,29.54
2022-08-07T16:51:20.523Z,29.81
2022-08-07T16:54:01.837Z,29.40
2022-08-07T16:56:56.067Z,29.65
2022-08-07T16:59:46.773Z,29.62
2022-08-07T17:02:51.785Z,29.96
2022-08-07T17:06:18.856Z,30.09
2022-08-07T17:08:18.708Z,29.91
2022-08-07T17:10:57.377Z,30.11
2022-08-07T17:14:19.146Z,30.36
2022-08-07T17:16:57.315Z,30.22
2022-08-07T17:20:00.876Z,30.66
2022-08-07T17:22:42.553Z,30.80
2022-08-07T17:25:15.825Z,30.77
2022-08-07T17:28:19.498Z,30.70
2022-08-07T17:31:16.932Z,30.97
2022-08-07T17:34:32.831Z,31.11
2022-08-07T17:36:49.007Z,30.82
2022-08-07T17:39:58.413Z,31.32
2022-08-07T17:42:59.630Z,31.29
2022-08-07T17:45:28.268Z,31.45
2022-08-07T17:47:59.624Z,31.53
2022-08-07T17:50:42.473Z,31.45
2022-08-07T17:54:01.334Z,31.57
2022-08-07T17:56:29.002Z,31.76
2022-08-07T17:59:01.811Z,32.08
2022-08-07T18:01:43.160Z,32.25
2022-08-07T18:04:16.289Z,32.34
2022-08-07T18:07:19.653Z,32.51
2022-08-07T18:10:07.499Z,32.60
2022-08-07T18:12:50.353Z,32.82
2022-08-07T18:15:32.523Z,33.03
2022-08-07T18:18:46.614Z,33.02
2022-08-07T18:21:27.491Z,33.34
2022-08-07T18:24:07.656Z,34.10
2022-08-07T18:26:40.747Z,34.39
2022-08-07T18:30:08.344Z,34.37
2022-08-07T18:32:07.719Z,34.19
2022-08-07T18:35:08.016Z,34.10
2022-08-07T18:38:58.250Z,34.39
2022-08-07T18:40:53.905Z,34.49
2022-08-07T18:43:49.671Z,34.05
2022-08-07T18:46:35.006Z,34.39
2022-08-07T18:50:31.018Z,34.35
2022-08-07T18:52:35.222Z,34.81
2022-08-07T18:55:43.173Z,35.45
2022-08-07T18:58:26.110Z,35.73
2022-08-07T19:02:18.264Z,35.22
2022-08-07T19:04:25.028Z,35.86
2022-08-07T19:07:35.143Z,35.59
2022-08-07T19:10:14.877Z,35.54
2022-08-07T19:13:10.123Z,35.49
2022-08-07T19:16:04.329Z,35.41
2022-08-07T19:19:13.221Z,35.63
2022-08-07T19:21:56.045Z,35.72
2022-08-07T19:24:31.035Z,35.63
2022-08-07T19:28:31.057Z,36.16
2022-08-07T19:31:06.290Z,36.03
2022-08-07T19:32:50.858Z,35.75
2022-08-07T19:35:22.658Z,36.75
2022-08-07T19:37:57.498Z,36.74
2022-08-07T19:40:31.772Z,36.35
2022-08-07T19:43:10.562Z,36.32
2022-08-07T19:46:07.697Z,36.34
2022-08-07T19:48:32.111Z,36.35
2022-08-07T19:51:20.068Z,36.64
2022-08-07T19:54:32.447Z,36.59
2022-08-07T19:57:52.006Z,36.85
2022-08-07T19:59:41.195Z,37.29
2022-08-07T20:02:19.481Z,34.80
2022-08-07T20:04:50.273Z,33.50
2022-08-07T20:07:46.918Z,32.99
2022-08-07T20:10:38.345Z,32.49
2022-08-07T20:13:05.944Z,31.99
2022-08-07T20:15:37.049Z,31.82
2022-08-07T20:18:14.693Z,31.55
2022-08-07T20:20:48.427Z,31.15
2022-08-07T20:23:40.281Z,31.13
2022-08-07T20:26:10.000Z,31.00
2022-08-07T20:28:39.062Z,30.78
2022-08-07T20:31:21.360Z,30.42
2022-08-07T20:33:56.654Z,30.76
2022-08-07T20:36:29.669Z,30.94
2022-08-07T20:38:59.645Z,30.79
2022-08-07T20:41:38.003Z,30.72
2022-08-07T20:44:12.324Z,30.81
2022-08-07T20:46:43.761Z,30.56
2022-08-07T20:50:00.920Z,30.91
2022-08-07T20:52:16.468Z,30.59
2022-08-07T20:54:54.100Z,30.57
2022-08-07T20:57:25.011Z,30.84
2022-08-07T21:00:05.227Z,31.26
2022-08-07T21:02:58.729Z,31.89
2022-08-07T21:05:50.919Z,32.26
2022-08-07T21:09:02.917Z,32.50
2022-08-07T21:11:50.144Z,32.70
2022-08-07T21:14:32.610Z,33.24
2022-08-07T21:18:04.019Z,33.27
2022-08-07T21:20:04.669Z,33.72
2022-08-07T21:22:39.767Z,34.06
2022-08-07T21:25:39.118Z,33.95
2022-08-07T21:28:48.013Z,34.45
2022-08-07T21:32:10.975Z,34.62
2022-08-07T21:34:32.618Z,35.08
2022-08-07T21:37:04.085Z,35.04
2022-08-07T21:39:56.477Z,35.46
2022-08-07T21:43:03.515Z,34.89
2022-08-07T21:46:08.438Z,34.07
2022-08-07T21:48:59.979Z,33.97
2022-08-07T21:51:27.330Z,33.92
2022-08-07T21:54:12.740Z,33.45
2022-08-07T21:57:31.460Z,33.57
2022-08-07T22:00:22.925Z,33.92
2022-08-07T22:03:17.101Z,33.27
2022-08-07T22:06:02.059Z,33.16
2022-08-07T22:08:33.592Z,33.34
2022-08-07T22:11:03.938Z,33.07
2022-08-07T22:13:51.985Z,32.92
2022-08-07T22:16:44.690Z,33.20
2022-08-07T22:19:30.306Z,33.21
2022-08-07T22:22:17.612Z,33.48
2022-08-07T22:24:54.660Z,33.50
2022-08-07T22:28:08.391Z,33.89
2022-08-07T22:30:21.872Z,33.71
2022-08-07T22:33:09.333Z,33.50
2022-08-07T22:35:46.287Z,33.81
2022-08-07T22:38:25.597Z,33.94
2022-08-07T22:41:02.969Z,33.66
2022-08-07T22:43:39.762Z,33.93
2022-08-07T22:47:03.069Z,33.89
2022-08-07T22:49:37.963Z,33.87
2022-08-07T22:52:36.920Z,34.20
2022-08-07T22:55:22.542Z,34.51
2022-08-07T22:58:12.432Z,34.67
2022-08-07T23:01:06.242Z,34.83
2022-08-07T23:03:59.125Z,34.84
2022-08-07T23:06:50.038Z,35.17
2022-08-07T23:10:05.219Z,35.73
2022-08-07T23:12:51.275Z,36.21
2022-08-07T23:16:06.063Z,36.28
2022-08-07T23:19:16.950Z,36.60
2022-08-07T23:21:56.533Z,37.15
2022-08-07T23:24:38.780Z,37.16
2022-08-07T23:28:20.575Z,36.84
2022-08-07T23:31:06.280Z,37.43
2022-08-07T23:34:22.553Z,37.92
2022-08-07T23:37:20.366Z,38.03
2022-08-07T23:40:28.252Z,38.44
2022-08-07T23:43:19.764Z,38.49
2022-08-07T23:46:10.963Z,38.69
2022-08-07T23:48:58.758Z,38.52
2022-08-07T23:53:08.845Z,38.83
2022-08-07T23:54:43.830Z,39.16
2022-08-07T23:57:32.455Z,39.27
